Time;durP1;ratioP1;P1;durP2;ratioP2;P2;SDS_P1;SDS_P2;PMS_P1;PMS_P2;Temp;Humidity;BMP_temperature;BMP_pressure;BME280_temperature;BME280_humidity;BME280_pressure;Samples;Min_cycle;Max_cycle;Signal;HPM_P1;HPM_P2
2022/01/01 00:02:23;;;;;;;47.43;42.37;;;10.50;99.90;;;;;;4996121;28;20544;-63
2022/01/01 00:04:49;;;;;;;53.00;45.67;;;10.50;99.90;;;;;;4996703;28;20185;-63
2022/01/01 00:07:16;;;;;;;48.57;43.37;;;10.60;99.90;;;;;;4996954;28;20902;-63
2022/01/01 00:09:43;;;;;;;45.30;39.90;;;10.60;99.90;;;;;;4996549;28;20414;-63
2022/01/01 00:12:10;;;;;;;46.83;40.53;;;10.60;99.90;;;;;;4996417;28;20433;-63
2022/01/01 00:14:36;;;;;;;54.20;48.43;;;10.60;99.90;;;;;;4996669;28;20423;-63
2022/01/01 00:17:02;;;;;;;55.00;47.37;;;10.50;99.90;;;;;;4996430;28;20416;-63
2022/01/01 00:19:28;;;;;;;44.63;38.30;;;10.50;99.90;;;;;;4996608;28;20172;-63
2022/01/01 00:21:53;;;;;;;47.80;42.40;;;10.40;99.90;;;;;;4996370;28;20461;-63
2022/01/01 00:24:19;;;;;;;47.33;41.17;;;10.50;99.90;;;;;;4996272;28;20193;-61
2022/01/01 00:26:45;;;;;;;43.40;35.77;;;10.50;99.90;;;;;;4997639;28;20201;-63
2022/01/01 00:29:10;;;;;;;38.20;34.10;;;10.60;99.90;;;;;;4999005;28;20233;-63
2022/01/01 00:31:36;;;;;;;38.67;32.00;;;10.80;99.90;;;;;;4997557;28;20169;-64
2022/01/01 00:34:02;;;;;;;40.60;36.20;;;10.90;99.90;;;;;;5000111;28;20161;-63
2022/01/01 00:36:28;;;;;;;38.07;33.03;;;10.90;99.90;;;;;;4999842;28;20221;-63
2022/01/01 00:38:54;;;;;;;36.70;32.80;;;11.00;99.90;;;;;;4999729;28;20179;-63
2022/01/01 00:41:19;;;;;;;40.70;35.10;;;11.00;99.90;;;;;;4997412;28;20411;-63
2022/01/01 00:43:45;;;;;;;30.97;26.87;;;11.10;99.90;;;;;;4998230;28;20456;-63
2022/01/01 00:46:11;;;;;;;31.27;28.07;;;11.30;99.90;;;;;;4996827;28;20557;-63
2022/01/01 00:48:37;;;;;;;34.03;26.77;;;11.30;99.90;;;;;;4996587;28;20618;-63
2022/01/01 00:51:03;;;;;;;38.60;33.30;;;11.50;99.90;;;;;;4996944;28;20501;-63
2022/01/01 00:53:28;;;;;;;39.07;32.90;;;11.50;99.90;;;;;;4996673;28;20219;-63
2022/01/01 00:55:54;;;;;;;35.53;30.40;;;11.50;99.90;;;;;;4996762;28;20263;-63
2022/01/01 00:58:20;;;;;;;34.83;30.93;;;11.50;99.90;;;;;;4995819;28;20649;-63
2022/01/01 01:00:45;;;;;;;39.00;31.20;;;11.40;99.90;;;;;;4996350;28;20582;-62
2022/01/01 01:03:13;;;;;;;38.10;32.03;;;11.30;99.90;;;;;;4995838;28;20165;-63
2022/01/01 01:05:40;;;;;;;30.17;25.97;;;11.40;99.90;;;;;;4995397;28;20274;-63
2022/01/01 01:08:10;;;;;;;35.03;28.90;;;11.40;99.90;;;;;;4995582;28;20893;-63
2022/01/01 01:10:37;;;;;;;33.40;28.67;;;11.40;99.90;;;;;;4995700;28;20411;-62
2022/01/01 01:13:04;;;;;;;34.10;28.97;;;11.50;99.90;;;;;;4995263;28;20397;-63
2022/01/01 01:15:32;;;;;;;31.07;26.17;;;11.50;99.90;;;;;;4994641;28;20472;-61
2022/01/01 01:17:58;;;;;;;31.20;27.80;;;11.60;99.90;;;;;;4995533;28;20848;-63
2022/01/01 01:20:25;;;;;;;34.60;28.37;;;11.60;99.90;;;;;;4995849;28;20466;-63
2022/01/01 01:22:51;;;;;;;32.33;28.30;;;11.50;99.90;;;;;;4996317;28;20408;-63
2022/01/01 01:25:17;;;;;;;30.67;26.23;;;11.40;99.90;;;;;;4996159;28;20441;-63
2022/01/01 01:27:43;;;;;;;60.97;51.57;;;11.40;99.90;;;;;;4996288;28;20207;-61
2022/01/01 01:30:15;;;;;;;38.60;34.50;;;11.40;99.90;;;;;;4996288;28;20657;-63
2022/01/01 01:32:41;;;;;;;26.60;23.90;;;11.40;99.90;;;;;;4996503;28;20173;-63
2022/01/01 01:35:08;;;;;;;25.73;21.60;;;11.40;99.90;;;;;;4996481;28;20972;-63
2022/01/01 01:37:34;;;;;;;26.33;23.03;;;11.50;99.90;;;;;;4996232;28;20422;-63
2022/01/01 01:40:00;;;;;;;22.90;20.53;;;11.50;99.90;;;;;;4996525;28;20570;-63
2022/01/01 01:42:28;;;;;;;27.33;22.03;;;11.50;99.90;;;;;;4995755;28;20501;-61
2022/01/01 01:44:55;;;;;;;26.57;22.50;;;11.60;99.90;;;;;;4994954;28;20435;-63
2022/01/01 01:47:29;;;;;;;24.60;19.90;;;11.60;99.90;;;;;;4995104;28;20501;-62
2022/01/01 01:49:56;;;;;;;21.30;19.00;;;11.70;99.90;;;;;;4995066;28;20393;-63
2022/01/01 01:52:23;;;;;;;22.73;18.70;;;11.80;99.90;;;;;;4994806;28;20446;-62
2022/01/01 01:54:50;;;;;;;16.77;15.03;;;11.80;99.90;;;;;;4994665;28;20770;-62
2022/01/01 01:57:15;;;;;;;19.03;17.03;;;11.90;99.90;;;;;;4994382;28;20461;-63
2022/01/01 01:59:42;;;;;;;18.57;15.80;;;12.00;99.90;;;;;;4994947;28;20412;-63
2022/01/01 02:02:08;;;;;;;20.10;15.57;;;11.90;99.90;;;;;;4994499;28;20160;-63
2022/01/01 02:04:34;;;;;;;18.70;16.37;;;12.00;99.90;;;;;;4994528;28;20436;-63
2022/01/01 02:07:00;;;;;;;18.70;16.20;;;12.00;99.90;;;;;;4994295;28;20164;-63
2022/01/01 02:09:26;;;;;;;16.97;15.17;;;12.00;99.90;;;;;;4994304;28;20192;-63
2022/01/01 02:11:53;;;;;;;17.33;15.07;;;12.00;99.90;;;;;;4994640;28;20423;-63
2022/01/01 02:15:06;;;;;;;19.97;16.30;;;12.00;99.90;;;;;;4994329;28;20665;-62
2022/01/01 02:17:08;;;;;;;17.00;15.20;;;12.00;99.90;;;;;;4993817;28;20964;-63
2022/01/01 02:19:55;;;;;;;18.83;15.87;;;11.90;99.90;;;;;;4994008;28;20419;-63
2022/01/01 02:22:22;;;;;;;16.50;14.27;;;11.90;99.90;;;;;;4994324;28;20460;-62
2022/01/01 02:24:48;;;;;;;15.50;13.97;;;11.90;99.90;;;;;;4994088;28;20479;-63
2022/01/01 02:27:14;;;;;;;15.00;13.37;;;11.90;99.90;;;;;;4993862;28;20771;-63
2022/01/01 02:29:40;;;;;;;23.83;15.13;;;11.80;99.90;;;;;;4993823;28;20893;-63
2022/01/01 02:32:11;;;;;;;17.20;15.50;;;11.80;99.90;;;;;;4994179;28;20397;-62
2022/01/01 02:34:37;;;;;;;18.70;15.70;;;11.80;99.90;;;;;;4994019;28;20459;-62
2022/01/01 02:37:03;;;;;;;19.30;15.10;;;11.70;99.90;;;;;;4994448;28;20384;-61
2022/01/01 02:39:29;;;;;;;17.60;14.80;;;11.60;99.90;;;;;;4993810;28;20407;-62
2022/01/01 02:41:56;;;;;;;14.50;13.07;;;11.50;99.90;;;;;;4994180;28;20753;-63
2022/01/01 02:44:23;;;;;;;17.00;13.77;;;11.40;99.90;;;;;;4993793;28;20607;-62
2022/01/01 02:46:52;;;;;;;17.60;14.90;;;11.40;99.90;;;;;;4993791;28;20450;-62
2022/01/01 02:49:17;;;;;;;16.33;14.63;;;11.40;99.90;;;;;;4994019;28;20449;-62
2022/01/01 02:51:43;;;;;;;16.70;14.40;;;11.50;99.90;;;;;;4993886;28;20455;-63
2022/01/01 02:54:09;;;;;;;15.13;13.03;;;11.40;99.90;;;;;;4993616;28;20173;-63
2022/01/01 02:56:34;;;;;;;21.17;15.90;;;11.30;99.90;;;;;;4993850;28;20165;-63
2022/01/01 02:59:00;;;;;;;13.30;11.90;;;11.40;99.90;;;;;;4993997;28;20630;-63
2022/01/01 03:01:25;;;;;;;13.70;12.23;;;11.50;99.90;;;;;;4994222;28;20169;-62
2022/01/01 03:03:51;;;;;;;16.07;12.90;;;11.50;99.90;;;;;;4993772;28;20168;-62
2022/01/01 03:06:20;;;;;;;12.70;10.97;;;11.40;99.90;;;;;;4993630;28;20195;-63
2022/01/01 03:08:51;;;;;;;14.40;10.87;;;11.20;99.90;;;;;;4993848;28;20258;-63
2022/01/01 03:11:18;;;;;;;11.10;9.37;;;11.20;99.90;;;;;;4993875;28;20497;-63
2022/01/01 03:13:44;;;;;;;9.67;8.67;;;11.30;99.90;;;;;;4994185;28;20898;-63
2022/01/01 03:16:10;;;;;;;10.67;9.20;;;11.40;99.90;;;;;;4993777;28;20967;-63
2022/01/01 03:18:37;;;;;;;9.70;8.10;;;11.50;99.90;;;;;;4992436;28;20552;-63
2022/01/01 03:21:03;;;;;;;11.00;9.57;;;11.60;99.90;;;;;;4993577;28;20412;-63
2022/01/01 03:23:29;;;;;;;10.20;9.17;;;11.60;99.90;;;;;;4993597;28;20468;-63
2022/01/01 03:25:54;;;;;;;11.77;10.50;;;11.60;99.90;;;;;;4993745;28;20929;-62
2022/01/01 03:28:20;;;;;;;12.00;10.07;;;11.60;99.90;;;;;;4993359;28;20196;-61
2022/01/01 03:30:45;;;;;;;10.17;9.00;;;11.60;99.90;;;;;;4993697;28;20172;-62
2022/01/01 03:33:11;;;;;;;10.97;9.23;;;11.60;99.90;;;;;;4993883;28;20175;-62
2022/01/01 03:35:37;;;;;;;9.03;7.90;;;11.60;99.90;;;;;;4993380;28;20204;-60
2022/01/01 03:38:02;;;;;;;9.77;8.17;;;11.60;99.90;;;;;;4994686;28;20691;-62
2022/01/01 03:40:28;;;;;;;10.33;9.27;;;11.80;99.90;;;;;;4996970;28;20214;-62
2022/01/01 03:42:53;;;;;;;9.13;8.13;;;11.70;99.90;;;;;;4997000;28;20237;-62
2022/01/01 03:45:19;;;;;;;10.90;7.80;;;11.80;99.90;;;;;;4996917;28;20197;-62
2022/01/01 03:47:44;;;;;;;9.97;8.70;;;11.80;99.90;;;;;;4997413;28;20300;-62
2022/01/01 03:50:10;;;;;;;8.67;7.77;;;11.90;99.90;;;;;;4996961;28;20214;-63
2022/01/01 03:52:44;;;;;;;11.83;9.63;;;12.00;99.90;;;;;;4997045;28;20176;-62
2022/01/01 03:55:11;;;;;;;9.53;8.63;;;12.00;99.90;;;;;;4997073;28;20424;-62
2022/01/01 03:57:37;;;;;;;12.00;9.00;;;12.10;99.90;;;;;;4996838;28;20414;-61
2022/01/01 04:00:09;;;;;;;10.27;8.07;;;12.10;99.90;;;;;;4996731;28;20900;-62
2022/01/01 04:02:35;;;;;;;8.33;7.53;;;12.20;99.90;;;;;;4996828;28;20224;-62
2022/01/01 04:05:00;;;;;;;9.00;7.43;;;12.20;99.90;;;;;;4996494;28;20435;-62
2022/01/01 04:07:26;;;;;;;8.53;7.67;;;12.20;99.90;;;;;;4996747;28;20597;-62
2022/01/01 04:09:52;;;;;;;9.17;7.40;;;12.20;99.90;;;;;;4996609;28;20168;-63
2022/01/01 04:12:17;;;;;;;10.00;8.80;;;12.20;99.90;;;;;;4996521;28;20181;-62
2022/01/01 04:14:43;;;;;;;10.73;7.80;;;12.20;99.90;;;;;;4996395;28;20673;-63
2022/01/01 04:17:12;;;;;;;8.00;6.47;;;12.20;99.90;;;;;;4996598;28;20180;-63
2022/01/01 04:19:40;;;;;;;9.33;7.47;;;12.10;99.90;;;;;;4996340;28;20215;-62
2022/01/01 04:22:08;;;;;;;10.03;7.90;;;12.10;99.90;;;;;;4996821;28;20412;-62
2022/01/01 04:24:34;;;;;;;9.87;8.27;;;12.10;99.90;;;;;;4996179;28;20470;-61
2022/01/01 04:27:01;;;;;;;8.10;7.10;;;12.10;99.90;;;;;;4996294;28;20404;-62
2022/01/01 04:29:26;;;;;;;11.13;8.30;;;12.10;99.90;;;;;;4996109;28;20820;-62
2022/01/01 04:31:52;;;;;;;10.80;8.03;;;12.10;99.90;;;;;;4996113;28;20422;-62
2022/01/01 04:37:11;;;;;;;13.83;9.30;;;12.00;99.90;;;;;;5018891;23;20251;-63
2022/01/01 04:39:37;;;;;;;10.33;8.60;;;12.00;99.90;;;;;;4996369;28;20394;-63
2022/01/01 04:42:03;;;;;;;8.83;7.60;;;11.80;99.90;;;;;;4996003;28;20415;-62
2022/01/01 04:44:28;;;;;;;10.00;8.70;;;11.90;99.90;;;;;;4996037;28;20228;-62
2022/01/01 04:46:54;;;;;;;10.20;8.40;;;11.90;99.90;;;;;;4996131;28;20645;-62
2022/01/01 04:49:20;;;;;;;10.50;8.13;;;11.90;99.90;;;;;;4995887;28;20193;-62
2022/01/01 04:51:46;;;;;;;9.07;8.13;;;12.00;99.90;;;;;;4996304;28;20553;-62
2022/01/01 04:54:20;;;;;;;8.70;7.20;;;12.00;99.90;;;;;;4995870;28;20412;-62
2022/01/01 04:56:48;;;;;;;9.83;7.60;;;11.90;99.90;;;;;;4995770;28;20249;-62
2022/01/01 04:59:15;;;;;;;9.20;8.27;;;11.80;99.90;;;;;;4995994;28;20412;-62
2022/01/01 05:01:40;;;;;;;9.17;8.20;;;11.80;99.90;;;;;;4995518;28;20418;-62
2022/01/01 05:04:07;;;;;;;14.93;7.57;;;11.70;99.90;;;;;;4995875;28;20504;-62
2022/01/01 05:06:33;;;;;;;8.83;6.73;;;11.60;99.90;;;;;;4995857;28;20192;-62
2022/01/01 05:09:00;;;;;;;7.10;6.13;;;11.40;99.90;;;;;;4996111;28;20490;-62
2022/01/01 05:11:26;;;;;;;9.40;7.90;;;11.30;99.90;;;;;;4995893;28;20804;-62
2022/01/01 05:13:52;;;;;;;8.70;7.10;;;11.20;99.90;;;;;;4996703;28;20889;-60
2022/01/01 05:16:19;;;;;;;10.93;8.20;;;11.00;99.90;;;;;;4995518;28;20432;-62
2022/01/01 05:18:45;;;;;;;9.70;7.33;;;10.90;99.90;;;;;;4995596;28;20414;-62
2022/01/01 05:21:11;;;;;;;10.90;7.87;;;10.80;99.90;;;;;;4995552;28;20453;-62
2022/01/01 05:23:37;;;;;;;7.00;6.30;;;10.70;99.90;;;;;;4995718;28;20436;-62
2022/01/01 05:26:03;;;;;;;8.13;6.73;;;10.70;99.90;;;;;;4995198;28;20835;-62
2022/01/01 05:28:29;;;;;;;11.03;7.67;;;10.60;99.90;;;;;;4994133;28;20204;-62
2022/01/01 05:30:55;;;;;;;9.80;8.00;;;10.60;99.90;;;;;;4995527;28;20412;-62
2022/01/01 05:33:20;;;;;;;7.70;6.40;;;10.60;99.90;;;;;;4995400;28;20772;-62
2022/01/01 05:35:46;;;;;;;8.43;7.03;;;10.60;99.90;;;;;;4995195;28;20207;-62
2022/01/01 05:38:12;;;;;;;7.90;7.10;;;10.50;99.90;;;;;;4995384;28;20222;-62
2022/01/01 05:40:37;;;;;;;8.27;7.37;;;10.50;99.90;;;;;;4995467;28;20172;-61
2022/01/01 05:43:03;;;;;;;6.77;6.07;;;10.40;99.90;;;;;;4995012;28;20186;-62
2022/01/01 05:45:28;;;;;;;8.43;7.53;;;10.40;99.90;;;;;;4995023;28;20277;-62
2022/01/01 05:47:54;;;;;;;7.67;6.67;;;10.30;99.90;;;;;;4995250;28;20194;-62
2022/01/01 05:50:20;;;;;;;9.20;6.90;;;10.30;99.90;;;;;;4995122;28;20541;-62
2022/01/01 05:52:46;;;;;;;8.57;6.90;;;10.30;99.90;;;;;;4995320;28;20172;-62
2022/01/01 05:55:13;;;;;;;7.43;6.67;;;10.30;99.90;;;;;;4995077;28;20435;-60
2022/01/01 05:57:38;;;;;;;11.27;8.03;;;10.30;99.90;;;;;;4995190;28;20398;-62
2022/01/01 06:00:07;;;;;;;6.93;5.67;;;10.20;99.90;;;;;;4994577;28;20924;-62
2022/01/01 06:02:40;;;;;;;6.47;5.60;;;10.00;99.90;;;;;;4994815;28;20558;-62
2022/01/01 06:05:06;;;;;;;8.40;6.93;;;10.00;99.90;;;;;;4995107;28;20432;-62
2022/01/01 06:07:31;;;;;;;9.53;6.03;;;9.90;99.90;;;;;;4994715;28;20464;-62
2022/01/01 06:09:57;;;;;;;9.70;6.90;;;9.80;99.90;;;;;;4994996;28;20409;-62
2022/01/01 06:12:22;;;;;;;8.27;7.10;;;9.80;99.90;;;;;;4994625;28;20176;-62
2022/01/01 06:14:48;;;;;;;7.07;6.17;;;9.90;99.90;;;;;;4994865;28;20661;-62
2022/01/01 06:17:13;;;;;;;6.70;6.00;;;10.00;99.90;;;;;;4994954;28;20598;-62
2022/01/01 06:19:39;;;;;;;7.13;6.13;;;10.10;99.90;;;;;;4995239;28;20176;-62
2022/01/01 06:22:04;;;;;;;8.43;5.10;;;10.20;99.90;;;;;;4995104;28;20665;-61
2022/01/01 06:24:30;;;;;;;6.73;6.03;;;10.30;99.90;;;;;;4995334;28;20662;-61
2022/01/01 06:26:56;;;;;;;6.27;5.40;;;10.40;99.90;;;;;;4995292;28;20179;-61
2022/01/01 06:29:21;;;;;;;6.10;5.50;;;10.40;99.90;;;;;;4994580;28;20188;-61
2022/01/01 06:31:48;;;;;;;6.87;5.23;;;10.50;99.90;;;;;;4995194;28;20297;-61
2022/01/01 06:34:13;;;;;;;6.83;5.90;;;10.50;99.90;;;;;;4994956;28;20435;-60
2022/01/01 06:36:39;;;;;;;7.27;5.77;;;10.60;99.90;;;;;;4994819;28;20693;-62
2022/01/01 06:39:05;;;;;;;8.30;6.60;;;10.60;99.90;;;;;;4994871;28;20650;-61
2022/01/01 06:41:30;;;;;;;6.70;5.90;;;10.40;99.90;;;;;;4994796;28;20174;-61
2022/01/01 06:43:56;;;;;;;5.30;4.80;;;10.40;99.90;;;;;;4995090;28;20201;-61
2022/01/01 06:46:21;;;;;;;5.40;4.57;;;10.30;99.90;;;;;;4994245;28;20679;-61
2022/01/01 06:48:47;;;;;;;5.93;4.60;;;10.50;99.90;;;;;;4994829;28;20209;-62
2022/01/01 06:51:13;;;;;;;5.50;4.70;;;10.60;99.90;;;;;;4994206;28;20657;-61
2022/01/01 06:53:39;;;;;;;5.37;4.07;;;10.80;99.90;;;;;;4994530;28;20223;-62
2022/01/01 06:56:06;;;;;;;5.60;4.73;;;10.80;99.90;;;;;;4994363;28;20201;-61
2022/01/01 06:58:33;;;;;;;4.93;4.33;;;10.90;99.90;;;;;;4994371;28;20585;-61
2022/01/01 07:00:59;;;;;;;4.90;3.97;;;10.90;99.90;;;;;;4994016;28;20898;-61
2022/01/01 07:03:25;;;;;;;4.33;3.83;;;11.00;99.90;;;;;;4994115;28;20440;-62
2022/01/01 07:05:50;;;;;;;5.10;4.60;;;11.20;99.90;;;;;;4993921;28;20202;-62
2022/01/01 07:08:17;;;;;;;5.67;4.60;;;11.40;99.90;;;;;;4994103;28;20227;-62
2022/01/01 07:10:44;;;;;;;4.43;3.83;;;11.40;99.90;;;;;;4993969;28;20174;-62
2022/01/01 07:13:11;;;;;;;4.60;3.90;;;11.30;99.90;;;;;;4995675;28;20413;-62
2022/01/01 07:15:36;;;;;;;5.03;4.00;;;11.40;99.90;;;;;;4997916;28;20428;-62
2022/01/01 07:18:02;;;;;;;4.07;3.67;;;11.50;99.90;;;;;;4997662;28;20499;-62
2022/01/01 07:20:27;;;;;;;4.57;3.87;;;11.60;99.90;;;;;;4997948;28;20187;-62
2022/01/01 07:22:53;;;;;;;5.00;3.97;;;11.70;99.90;;;;;;4997490;28;20169;-62
2022/01/01 07:25:20;;;;;;;4.40;3.90;;;11.70;99.90;;;;;;4997693;28;20578;-62
2022/01/01 07:27:45;;;;;;;4.47;3.80;;;11.60;99.90;;;;;;4997725;28;20216;-62
2022/01/01 07:30:11;;;;;;;3.67;3.37;;;11.40;99.90;;;;;;4997370;28;20414;-62
2022/01/01 07:32:42;;;;;;;4.83;3.50;;;11.60;99.90;;;;;;4997401;28;20181;-62
2022/01/01 07:35:08;;;;;;;4.73;4.07;;;11.70;99.90;;;;;;4997280;28;20517;-62
2022/01/01 07:37:34;;;;;;;3.53;3.23;;;11.70;99.90;;;;;;4997252;28;20502;-62
2022/01/01 07:40:00;;;;;;;4.60;4.20;;;11.80;99.90;;;;;;4997225;28;20499;-62
2022/01/01 07:42:26;;;;;;;4.53;3.63;;;11.70;99.90;;;;;;4997500;28;20522;-61
2022/01/01 07:44:51;;;;;;;4.30;3.97;;;11.80;99.90;;;;;;4997095;28;20535;-62
2022/01/01 07:47:17;;;;;;;4.17;3.50;;;11.60;99.90;;;;;;4997187;28;20206;-62
2022/01/01 07:49:42;;;;;;;4.87;3.80;;;11.70;99.90;;;;;;4996873;28;20203;-62
2022/01/01 07:52:09;;;;;;;5.17;4.00;;;11.80;99.90;;;;;;4996952;28;20204;-62
2022/01/01 07:54:35;;;;;;;4.40;4.00;;;11.90;99.90;;;;;;4996941;28;20202;-62
2022/01/01 07:57:00;;;;;;;4.30;3.50;;;11.90;99.90;;;;;;4997141;28;20414;-62
2022/01/01 07:59:26;;;;;;;4.50;3.67;;;11.90;99.90;;;;;;4996832;28;20173;-62
2022/01/01 08:01:51;;;;;;;5.33;4.20;;;11.90;99.90;;;;;;4996674;28;20173;-62
2022/01/01 08:04:17;;;;;;;6.03;3.90;;;11.90;99.90;;;;;;4996663;28;20671;-62
2022/01/01 08:06:42;;;;;;;4.07;3.67;;;11.80;99.90;;;;;;4996583;28;20203;-62
2022/01/01 08:09:08;;;;;;;5.00;3.60;;;11.80;99.90;;;;;;4996484;28;20254;-62
2022/01/01 08:11:34;;;;;;;4.60;4.00;;;11.80;99.90;;;;;;4997055;28;20179;-62
2022/01/01 08:13:59;;;;;;;5.27;3.77;;;11.80;99.90;;;;;;4997028;28;20534;-62
2022/01/01 08:16:25;;;;;;;5.60;4.80;;;11.70;99.90;;;;;;4996649;28;20195;-62
2022/01/01 08:18:50;;;;;;;4.53;4.10;;;11.40;99.90;;;;;;4997107;28;20675;-62
2022/01/01 08:21:17;;;;;;;3.60;3.17;;;11.50;99.90;;;;;;4996384;28;20171;-62
2022/01/01 08:23:43;;;;;;;4.60;4.00;;;11.60;99.90;;;;;;4996574;28;20538;-62
2022/01/01 08:26:09;;;;;;;5.67;3.60;;;11.50;99.90;;;;;;4995739;28;20423;-62
2022/01/01 08:28:34;;;;;;;4.97;3.57;;;11.40;99.90;;;;;;4996226;28;20292;-62
2022/01/01 08:31:00;;;;;;;4.37;3.67;;;11.40;99.90;;;;;;4996115;28;20168;-62
2022/01/01 08:33:26;;;;;;;4.23;3.73;;;11.40;99.90;;;;;;4996558;28;20181;-62
2022/01/01 08:35:52;;;;;;;3.83;3.43;;;11.40;99.90;;;;;;4996742;28;20217;-62
2022/01/01 08:38:17;;;;;;;3.93;3.63;;;11.20;99.90;;;;;;4996711;28;20449;-62
2022/01/01 08:40:43;;;;;;;5.20;4.30;;;11.30;99.90;;;;;;4996542;28;20183;-62
2022/01/01 08:43:09;;;;;;;4.33;3.90;;;11.20;99.90;;;;;;4996209;28;20182;-62
2022/01/01 08:45:37;;;;;;;6.30;4.53;;;11.20;99.90;;;;;;4996291;28;20256;-60
2022/01/01 08:48:03;;;;;;;4.30;3.90;;;11.30;99.90;;;;;;4995918;28;20279;-62
2022/01/01 08:50:29;;;;;;;4.50;3.93;;;11.50;99.90;;;;;;4996316;28;20776;-62
2022/01/01 08:52:55;;;;;;;4.27;3.73;;;11.50;99.90;;;;;;4995846;28;20412;-59
2022/01/01 08:55:21;;;;;;;4.60;3.90;;;11.50;99.90;;;;;;4994633;28;20283;-62
2022/01/01 08:57:47;;;;;;;3.33;3.03;;;11.40;99.90;;;;;;4995852;28;20540;-62
2022/01/01 09:00:13;;;;;;;3.00;2.70;;;11.40;99.90;;;;;;4996482;28;20180;-62
2022/01/01 09:02:39;;;;;;;5.00;3.87;;;11.40;99.90;;;;;;4996536;28;20253;-62
2022/01/01 09:05:05;;;;;;;4.63;3.27;;;11.40;99.90;;;;;;4995972;28;20824;-62
2022/01/01 09:07:30;;;;;;;3.20;2.80;;;11.50;99.90;;;;;;4995816;28;20462;-62
2022/01/01 09:09:57;;;;;;;3.50;3.13;;;11.60;99.90;;;;;;4995627;28;20408;-62
2022/01/01 09:12:24;;;;;;;3.27;2.97;;;11.70;99.90;;;;;;4995558;28;20650;-62
2022/01/01 09:14:49;;;;;;;4.30;3.67;;;11.70;99.90;;;;;;4995197;28;20792;-62
2022/01/01 09:17:15;;;;;;;4.40;3.63;;;11.80;99.90;;;;;;4995872;28;20414;-62
2022/01/01 09:19:41;;;;;;;3.67;3.37;;;11.80;99.90;;;;;;4995349;28;20176;-62
2022/01/01 09:22:06;;;;;;;5.60;3.20;;;11.80;99.90;;;;;;4995634;28;20180;-62
2022/01/01 09:24:32;;;;;;;7.30;3.97;;;11.90;99.90;;;;;;4995565;28;20176;-62
2022/01/01 09:26:58;;;;;;;3.40;3.10;;;11.90;99.90;;;;;;4995262;28;20546;-62
2022/01/01 09:29:23;;;;;;;4.13;3.60;;;11.80;99.90;;;;;;4995033;28;20196;-62
2022/01/01 09:31:49;;;;;;;5.20;3.80;;;11.80;99.90;;;;;;4995152;28;20200;-62
2022/01/01 09:34:15;;;;;;;5.03;3.23;;;11.70;99.90;;;;;;4995080;28;20176;-62
2022/01/01 09:36:40;;;;;;;3.73;3.30;;;11.70;99.90;;;;;;4994187;28;20207;-62
2022/01/01 09:39:06;;;;;;;4.87;3.23;;;11.90;99.90;;;;;;4994870;28;20701;-62
2022/01/01 09:41:32;;;;;;;3.43;3.13;;;11.90;99.90;;;;;;4995430;28;20640;-61
2022/01/01 09:43:59;;;;;;;3.60;3.23;;;12.00;99.90;;;;;;4994736;28;20416;-62
2022/01/01 09:46:28;;;;;;;4.53;3.53;;;12.00;99.90;;;;;;4994695;28;20442;-62
2022/01/01 09:48:54;;;;;;;4.47;3.70;;;12.00;99.90;;;;;;4995177;28;20459;-62
2022/01/01 09:51:21;;;;;;;4.33;3.40;;;12.10;99.90;;;;;;4994926;28;20399;-62
2022/01/01 09:53:47;;;;;;;3.23;2.93;;;12.20;99.90;;;;;;4994957;28;20412;-62
2022/01/01 09:56:13;;;;;;;4.97;4.10;;;12.30;99.90;;;;;;4994786;28;20431;-62
2022/01/01 09:58:39;;;;;;;3.90;3.60;;;12.30;99.90;;;;;;4994624;28;20415;-62
2022/01/01 10:01:07;;;;;;;3.70;3.40;;;12.40;99.90;;;;;;4994441;28;20422;-59
2022/01/01 10:03:41;;;;;;;4.37;3.00;;;12.40;99.90;;;;;;4994702;28;20420;-62
2022/01/01 10:06:09;;;;;;;6.97;3.53;;;12.50;99.90;;;;;;4994625;28;20430;-63
2022/01/01 10:08:45;;;;;;;7.90;3.70;;;12.50;99.90;;;;;;4994530;28;20825;-62
2022/01/01 10:11:11;;;;;;;5.10;3.03;;;12.50;99.90;;;;;;4994520;28;20440;-60
2022/01/01 10:13:39;;;;;;;3.70;3.07;;;12.50;99.90;;;;;;4994315;28;20443;-62
2022/01/01 10:16:07;;;;;;;3.30;3.00;;;12.40;99.90;;;;;;4994694;28;20194;-63
2022/01/01 10:18:53;;;;;;;2.97;2.77;;;12.50;99.90;;;;;;4994373;28;20423;-61
2022/01/01 10:21:22;;;;;;;3.50;3.20;;;12.70;99.90;;;;;;4994029;28;20395;-63
2022/01/01 10:23:52;;;;;;;3.50;3.20;;;12.70;99.90;;;;;;4993952;28;20423;-63
2022/01/01 10:29:28;;;;;;;3.20;2.90;;;12.90;99.90;;;;;;4994433;28;20446;-63
2022/01/01 10:32:10;;;;;;;4.10;3.33;;;13.00;99.90;;;;;;4994115;28;20391;-61
2022/01/01 10:34:42;;;;;;;3.70;3.13;;;13.00;99.90;;;;;;4993675;28;20462;-63
2022/01/01 10:37:08;;;;;;;2.60;2.40;;;13.10;99.90;;;;;;5034461;23;20490;-61
2022/01/01 10:39:48;;;;;;;3.13;2.70;;;13.10;99.90;;;;;;5014525;28;20497;-60
2022/01/01 10:42:14;;;;;;;3.00;2.33;;;13.20;99.90;;;;;;5012176;28;20166;-63
2022/01/01 10:44:41;;;;;;;3.50;2.53;;;13.30;99.90;;;;;;5013329;28;20413;-63
2022/01/01 10:47:20;;;;;;;3.27;2.80;;;13.20;99.90;;;;;;5013286;28;20216;-61
2022/01/01 10:52:27;;;;;;;4.93;2.40;;;13.40;99.90;;;;;;5013392;28;20625;-63
2022/01/01 10:55:00;;;;;;;5.00;2.83;;;13.40;99.90;;;;;;5013378;28;20390;-63
2022/01/01 10:57:34;;;;;;;3.40;2.63;;;13.50;99.90;;;;;;5013425;28;20418;-63
2022/01/01 11:00:08;;;;;;;3.90;3.37;;;13.50;99.90;;;;;;5013417;28;20420;-62
2022/01/01 11:02:39;;;;;;;5.20;4.30;;;13.80;99.90;;;;;;5013527;28;20417;-63
2022/01/01 11:05:06;;;;;;;5.23;3.97;;;15.20;99.90;;;;;;5013458;28;20741;-62
2022/01/01 11:07:32;;;;;;;2.70;2.10;;;17.00;99.90;;;;;;5013091;28;20407;-63
2022/01/01 11:09:59;;;;;;;3.17;2.37;;;19.20;99.90;;;;;;5013029;28;20469;-62
2022/01/01 11:12:27;;;;;;;3.17;2.20;;;20.60;99.90;;;;;;5013162;28;20411;-62
2022/01/01 11:14:58;;;;;;;3.00;1.93;;;21.40;99.90;;;;;;5013073;28;20422;-61
2022/01/01 11:17:24;;;;;;;5.30;2.27;;;21.40;99.90;;;;;;5012994;28;20447;-63
2022/01/01 11:19:50;;;;;;;3.70;3.40;;;21.90;99.90;;;;;;5013362;28;20399;-63
2022/01/01 11:22:18;;;;;;;5.10;4.60;;;21.50;99.80;;;;;;5013563;28;20768;-63
2022/01/01 11:24:45;;;;;;;4.80;4.40;;;21.80;99.00;;;;;;5013011;28;20491;-63
2022/01/01 11:27:11;;;;;;;6.07;5.37;;;22.80;97.20;;;;;;5012878;28;20434;-63
2022/01/01 11:29:39;;;;;;;6.87;6.17;;;23.00;96.00;;;;;;5013145;28;20434;-63
2022/01/01 11:32:07;;;;;;;6.50;5.30;;;22.50;96.10;;;;;;5013006;28;20494;-63
2022/01/01 11:34:37;;;;;;;6.13;5.50;;;22.40;95.70;;;;;;5012921;28;20457;-63
2022/01/01 11:37:04;;;;;;;6.13;5.43;;;21.60;96.80;;;;;;5012908;28;20447;-63
2022/01/01 11:39:30;;;;;;;6.17;5.57;;;22.10;96.10;;;;;;5012869;28;20419;-63
2022/01/01 11:42:10;;;;;;;7.33;6.50;;;22.10;95.90;;;;;;5012850;28;20755;-62
2022/01/01 11:44:35;;;;;;;7.00;6.30;;;22.20;95.20;;;;;;5013195;28;20179;-62
2022/01/01 11:47:15;;;;;;;6.80;5.70;;;22.50;95.10;;;;;;5012823;28;20418;-63
2022/01/01 11:49:40;;;;;;;5.87;4.77;;;23.30;94.40;;;;;;5013170;28;20176;-63
2022/01/01 11:52:06;;;;;;;6.17;5.20;;;22.80;93.40;;;;;;5012988;28;20418;-63
2022/01/01 11:54:38;;;;;;;5.33;4.83;;;23.00;94.10;;;;;;5012724;28;20164;-62
2022/01/01 11:57:05;;;;;;;5.37;4.87;;;23.20;93.60;;;;;;5012910;28;20266;-63
2022/01/01 11:59:36;;;;;;;4.57;4.17;;;22.80;93.10;;;;;;5014932;28;20417;-63
2022/01/01 12:02:11;;;;;;;5.03;4.63;;;23.00;93.30;;;;;;5016228;28;20916;-63
2022/01/01 12:04:42;;;;;;;4.90;4.40;;;23.10;93.40;;;;;;5016338;28;20421;-63
2022/01/01 12:07:12;;;;;;;4.73;3.60;;;23.70;92.50;;;;;;5016272;28;20449;-63
2022/01/01 12:10:06;;;;;;;5.63;4.90;;;24.10;92.20;;;;;;5016005;28;20449;-63
2022/01/01 12:12:43;;;;;;;6.00;5.40;;;24.00;91.90;;;;;;5015917;28;20410;-63
2022/01/01 12:15:26;;;;;;;7.53;6.83;;;24.50;90.70;;;;;;5016311;28;20391;-61
2022/01/01 12:18:05;;;;;;;5.70;5.17;;;23.20;91.90;;;;;;5016036;28;20775;-61
2022/01/01 12:20:46;;;;;;;6.17;5.57;;;23.10;91.80;;;;;;5016236;28;20442;-62
2022/01/01 12:23:20;;;;;;;7.17;5.83;;;22.30;92.40;;;;;;5015994;28;20471;-61
2022/01/01 12:25:47;;;;;;;6.00;5.40;;;22.70;93.30;;;;;;5015931;28;20465;-62
2022/01/01 12:28:31;;;;;;;5.37;4.87;;;23.30;92.70;;;;;;5015637;28;20501;-62
2022/01/01 12:31:07;;;;;;;5.80;5.20;;;22.80;92.60;;;;;;5015942;28;20804;-62
2022/01/01 12:33:39;;;;;;;5.00;4.57;;;23.20;92.50;;;;;;5015785;28;20398;-62
2022/01/01 12:36:09;;;;;;;6.13;5.53;;;23.00;91.90;;;;;;5015356;28;20458;-62
2022/01/01 12:38:39;;;;;;;6.07;5.53;;;22.10;93.20;;;;;;5015346;28;20411;-62
2022/01/01 12:41:07;;;;;;;5.50;4.90;;;21.10;94.30;;;;;;5015555;28;20383;-62
2022/01/01 12:43:55;;;;;;;6.73;5.33;;;20.50;95.40;;;;;;5015371;28;20411;-62
2022/01/01 12:46:24;;;;;;;4.90;4.47;;;19.90;96.40;;;;;;5015844;28;20427;-62
2022/01/01 12:48:51;;;;;;;6.07;5.47;;;19.30;97.50;;;;;;5015306;28;20534;-62
2022/01/01 12:51:20;;;;;;;5.83;5.13;;;18.50;98.50;;;;;;5015367;28;20930;-62